KRQB

Roben-Hood Airport

Big Rapids, Michigan, USA
METAR KRQB 220515Z AUTO 07003KT 10SM CLR 15/02 A2991 RMK AO2 T01520019
Observed Flight Rules
Jun-22 @ 05:15 UTC (19 minutes ago) Visual Flight Rules
Wind Visibility Clouds
70° at 3 knots 10 miles
  • Clear skies
Temperatures Readings
Current 15°C / 59°F
Dewpoint 2°C / 36°F
Humidity 42%
Altimeter 29.91" Hg
Pressure 1013 hPa
Elevation 302
METAR KRQB 220515Z AUTO 07003KT 10SM CLR 15/02 A2991 RMK AO2 T01520019
Observed Flight Rules
Jun-22 @ 05:15 UTC
(19 minutes ago)
VFR
Wind Visibility
70° at 3 knots 10 miles
Clouds
  • Clear skies
Temperature Dewpoint
15°C / 59°F 2°C / 36°F
Humidity Altimeter Pressure
42% 29.91" Hg 1013 hPa